Main page
METAR-TAF:

METAR-TAF

Airports :

Clarence Valley Regional Airport

Grafton, Australia

latitude: 29-45-36S, longitude: 153-01-48E, elevation: 34 m

Current weather observation

The report was made 1 hour and 22 minutes ago, at 00:00 UTC
Wind 10 kt from the South
Temperature 21°C
Humidity 69%
Pressure 1020 hPa
Visibility 10 km or more
Broken clouds at a height of 5600 ft
Broken clouds at a height of 6700 ft
Overcast at a height of 7700 ft

METAR: YGFN 070000Z AUTO 18010KT 9999 // BKN056 BKN067 OVC077 21/15 Q1020

Time: 11:22 (01:22 UTC)


TAF: missing

Weather observations and forecasts of more than 4000 airports (METAR and TAF reports).

The available stations are represented by yellow and red dots on the map.

Hover mouse over dot to see the name of the station.

Then click to see weather observations and forecasts.

To change the map : click on the green buttons with a black cross to zoom in, on the green button with a dash to zoom out, or on the green arrows for adjacent maps.


METAR-TAF: